createdAt,value
2022-09-25T00:00:21.681Z,42.25
2022-09-25T00:02:51.282Z,41.50
2022-09-25T00:05:20.816Z,41.75
2022-09-25T00:07:52.906Z,40.25
2022-09-25T00:10:22.275Z,40.00
2022-09-25T00:12:51.628Z,37.75
2022-09-25T00:15:21.103Z,39.25
2022-09-25T00:17:50.544Z,39.50
2022-09-25T00:20:22.108Z,38.00
2022-09-25T00:22:51.931Z,36.75
2022-09-25T00:25:21.834Z,37.00
2022-09-25T00:27:54.890Z,41.00
2022-09-25T00:30:25.267Z,37.00
2022-09-25T00:32:54.906Z,37.50
2022-09-25T00:35:24.270Z,34.75
2022-09-25T00:37:53.751Z,36.75
2022-09-25T00:40:23.483Z,34.50
2022-09-25T00:42:52.966Z,36.50
2022-09-25T00:45:22.683Z,37.00
2022-09-25T00:47:54.935Z,35.00
2022-09-25T00:50:31.175Z,32.00
2022-09-25T00:53:05.258Z,35.25
2022-09-25T00:55:36.101Z,35.25
2022-09-25T00:58:06.974Z,37.75
2022-09-25T01:00:37.340Z,34.50
2022-09-25T01:03:06.743Z,32.75
2022-09-25T01:05:38.254Z,37.75
2022-09-25T01:08:11.357Z,32.75
2022-09-25T01:10:41.283Z,34.00
2022-09-25T01:13:11.161Z,32.00
2022-09-25T01:15:40.451Z,36.50
2022-09-25T01:18:09.855Z,34.50
2022-09-25T01:21:00.402Z,33.50
2022-09-25T01:23:48.023Z,35.75
2022-09-25T01:26:35.335Z,34.00
2022-09-25T01:29:13.656Z,34.25
2022-09-25T01:31:54.414Z,36.00
2022-09-25T01:34:47.270Z,37.00
2022-09-25T01:37:24.355Z,40.00
2022-09-25T01:40:09.786Z,36.50
2022-09-25T01:42:42.448Z,38.50
2022-09-25T01:45:17.216Z,41.25
2022-09-25T01:47:50.068Z,38.75
2022-09-25T01:50:23.170Z,37.25
2022-09-25T01:52:54.929Z,41.50
2022-09-25T01:55:27.064Z,39.75
2022-09-25T01:58:06.979Z,38.50
2022-09-25T02:00:39.172Z,39.50
2022-09-25T02:03:19.824Z,41.00
2022-09-25T02:05:53.425Z,39.00
2022-09-25T02:08:47.184Z,39.00
2022-09-25T02:11:19.524Z,42.25
2022-09-25T02:13:56.197Z,42.50
2022-09-25T02:16:36.641Z,39.75
2022-09-25T02:19:26.604Z,39.25
2022-09-25T02:22:05.889Z,39.75
2022-09-25T02:24:42.112Z,39.00
2022-09-25T02:27:12.738Z,40.75
2022-09-25T02:29:44.803Z,41.50
2022-09-25T02:32:16.370Z,41.00
2022-09-25T02:34:45.848Z,40.75
2022-09-25T02:37:18.873Z,43.25
2022-09-25T02:39:51.206Z,39.50
2022-09-25T02:42:20.661Z,37.75
2022-09-25T02:44:59.253Z,40.25
2022-09-25T02:47:56.402Z,37.75
2022-09-25T02:50:43.862Z,39.25
2022-09-25T02:53:31.631Z,42.50
2022-09-25T02:56:04.449Z,38.75
2022-09-25T02:58:37.015Z,40.50
2022-09-25T03:01:09.936Z,40.75
2022-09-25T03:03:40.249Z,40.50
2022-09-25T03:06:10.533Z,37.75
2022-09-25T03:08:47.345Z,38.00
2022-09-25T03:11:21.041Z,39.00
2022-09-25T03:14:01.579Z,40.75
2022-09-25T03:16:38.754Z,41.50
2022-09-25T03:19:09.911Z,40.00
2022-09-25T03:21:39.619Z,39.25
2022-09-25T03:24:08.917Z,40.00
2022-09-25T03:26:38.476Z,40.50
2022-09-25T03:29:08.065Z,40.00
2022-09-25T03:31:37.582Z,41.75
2022-09-25T03:34:07.065Z,39.75
2022-09-25T03:36:37.053Z,39.00
2022-09-25T03:39:07.419Z,40.75
2022-09-25T03:41:36.926Z,39.00
2022-09-25T03:44:06.721Z,42.25
2022-09-25T03:46:37.242Z,39.75
2022-09-25T03:49:07.573Z,40.25
2022-09-25T03:51:37.307Z,42.00
2022-09-25T03:54:07.067Z,38.75
2022-09-25T03:56:36.935Z,39.50
2022-09-25T03:59:07.584Z,41.50
2022-09-25T04:01:38.174Z,37.25
2022-09-25T04:04:08.337Z,38.00
2022-09-25T04:06:37.741Z,41.00
2022-09-25T04:09:07.215Z,38.00
2022-09-25T04:11:39.514Z,38.75
2022-09-25T04:14:09.053Z,39.00
2022-09-25T04:16:38.558Z,39.25
2022-09-25T04:19:08.284Z,37.75
2022-09-25T04:21:37.588Z,40.75
2022-09-25T04:24:24.860Z,43.00
2022-09-25T04:26:55.020Z,39.00
2022-09-25T04:29:26.199Z,38.75
2022-09-25T04:32:13.682Z,39.75
2022-09-25T04:34:43.114Z,43.00
2022-09-25T04:37:13.305Z,43.50
2022-09-25T04:39:42.700Z,42.75
2022-09-25T04:42:12.165Z,43.75
2022-09-25T04:44:41.585Z,42.75
2022-09-25T04:47:11.055Z,43.25
2022-09-25T04:49:40.598Z,43.25
2022-09-25T04:52:10.125Z,42.75
2022-09-25T04:54:39.543Z,42.25
2022-09-25T04:57:09.412Z,40.00
2022-09-25T04:59:39.240Z,41.00
2022-09-25T05:02:08.837Z,40.00
2022-09-25T05:04:38.399Z,40.25
2022-09-25T05:07:08.069Z,41.00
2022-09-25T05:09:37.632Z,41.25
2022-09-25T05:12:07.388Z,37.75
2022-09-25T05:14:36.973Z,40.25
2022-09-25T05:17:08.177Z,37.75
2022-09-25T05:19:38.278Z,38.25
2022-09-25T05:22:07.938Z,39.50
2022-09-25T05:24:37.635Z,40.75
2022-09-25T05:27:10.162Z,40.00
2022-09-25T05:29:40.336Z,42.00
2022-09-25T05:32:09.752Z,41.50
2022-09-25T05:34:42.023Z,41.00
2022-09-25T05:37:11.379Z,42.00
2022-09-25T05:39:40.704Z,43.75
2022-09-25T05:42:10.471Z,41.50
2022-09-25T05:44:40.939Z,42.50
2022-09-25T05:47:10.449Z,43.25
2022-09-25T05:49:39.900Z,43.25
2022-09-25T05:52:09.397Z,42.00
2022-09-25T05:54:38.915Z,41.75
2022-09-25T05:57:09.586Z,42.00
2022-09-25T05:59:38.969Z,42.50
2022-09-25T06:02:11.135Z,42.75
2022-09-25T06:04:40.484Z,42.50
2022-09-25T06:07:11.300Z,41.00
2022-09-25T06:09:40.787Z,42.25
2022-09-25T06:12:10.227Z,42.25
2022-09-25T06:14:39.710Z,41.75
2022-09-25T06:17:09.652Z,43.00
2022-09-25T06:19:39.262Z,45.00
2022-09-25T06:22:08.688Z,45.75
2022-09-25T06:24:38.053Z,40.50
2022-09-25T06:27:10.860Z,43.50
2022-09-25T06:29:40.228Z,42.50
2022-09-25T06:32:09.536Z,44.00
2022-09-25T06:34:39.960Z,44.75
2022-09-25T06:37:10.186Z,44.75
2022-09-25T06:39:39.593Z,43.00
2022-09-25T06:42:08.909Z,43.50
2022-09-25T06:44:39.153Z,43.25
2022-09-25T06:47:08.853Z,46.50
2022-09-25T06:49:38.163Z,44.00
2022-09-25T06:52:07.588Z,43.75
2022-09-25T06:54:39.453Z,40.75
2022-09-25T06:57:13.952Z,42.50
2022-09-25T06:59:43.416Z,42.75
2022-09-25T07:02:30.832Z,44.75
2022-09-25T07:05:01.513Z,40.75
2022-09-25T07:07:32.361Z,42.75
2022-09-25T07:10:02.517Z,41.75
2022-09-25T07:12:35.580Z,43.75
2022-09-25T07:15:05.049Z,42.50
2022-09-25T07:17:34.414Z,44.00
2022-09-25T07:20:04.253Z,41.25
2022-09-25T07:22:33.732Z,45.25
2022-09-25T07:25:03.382Z,43.00
2022-09-25T07:27:32.877Z,43.50
2022-09-25T07:30:05.135Z,42.25
2022-09-25T07:32:35.269Z,42.00
2022-09-25T07:35:04.816Z,43.25
2022-09-25T07:37:35.666Z,43.75
2022-09-25T07:40:05.523Z,42.75
2022-09-25T07:42:36.480Z,42.50
2022-09-25T07:45:06.185Z,43.75
2022-09-25T07:47:35.897Z,43.00
2022-09-25T07:50:05.260Z,45.25
2022-09-25T07:52:34.657Z,43.00
2022-09-25T07:55:03.987Z,47.75
2022-09-25T07:57:33.354Z,45.25
2022-09-25T08:00:03.533Z,45.00
2022-09-25T08:02:41.188Z,44.75
2022-09-25T08:05:12.817Z,45.50
2022-09-25T08:07:42.461Z,45.25
2022-09-25T08:10:11.861Z,44.50
2022-09-25T08:12:42.178Z,45.50
2022-09-25T08:15:11.946Z,45.00
2022-09-25T08:17:41.346Z,44.00
2022-09-25T08:20:11.161Z,44.75
2022-09-25T08:22:40.516Z,43.75
2022-09-25T08:25:10.079Z,43.75
2022-09-25T08:27:43.449Z,43.50
2022-09-25T08:30:15.075Z,46.00
2022-09-25T08:32:44.874Z,45.50
2022-09-25T08:35:14.851Z,43.00
2022-09-25T08:37:46.283Z,45.50
2022-09-25T08:40:21.968Z,47.00
2022-09-25T08:42:54.329Z,44.00
2022-09-25T08:45:46.063Z,44.75
2022-09-25T08:48:39.707Z,44.25
2022-09-25T08:51:11.024Z,42.50
2022-09-25T08:53:41.895Z,43.25
2022-09-25T08:56:16.745Z,43.00
2022-09-25T08:58:48.128Z,43.00
2022-09-25T09:01:20.950Z,47.50
2022-09-25T09:04:12.452Z,43.25
2022-09-25T09:06:44.981Z,42.75
2022-09-25T09:09:38.714Z,40.50
2022-09-25T09:12:17.206Z,43.00
2022-09-25T09:14:49.354Z,42.75
2022-09-25T09:17:24.279Z,41.25
2022-09-25T09:19:56.960Z,43.25
2022-09-25T09:22:34.751Z,44.75
2022-09-25T09:25:25.553Z,40.00
2022-09-25T09:28:01.288Z,43.00
2022-09-25T09:30:37.494Z,42.50
2022-09-25T09:33:30.703Z,42.25
2022-09-25T09:36:03.763Z,43.50
2022-09-25T09:38:46.051Z,41.50
2022-09-25T09:41:23.164Z,41.50
2022-09-25T09:44:13.826Z,42.75
2022-09-25T09:46:43.594Z,45.00
2022-09-25T09:49:20.430Z,44.25
2022-09-25T09:51:56.252Z,42.75
2022-09-25T09:54:48.367Z,42.50
2022-09-25T09:57:28.660Z,43.75
2022-09-25T10:00:03.659Z,45.25
2022-09-25T10:02:40.522Z,45.50
2022-09-25T10:05:22.966Z,45.75
2022-09-25T10:07:54.999Z,47.25
2022-09-25T10:10:29.278Z,46.75
2022-09-25T10:13:06.253Z,46.75
2022-09-25T10:15:40.127Z,48.50
2022-09-25T10:18:09.942Z,45.50
2022-09-25T10:20:44.957Z,51.50
2022-09-25T10:23:35.374Z,49.00
2022-09-25T10:26:07.351Z,48.50
2022-09-25T10:28:37.314Z,48.50
2022-09-25T10:31:10.316Z,50.75
2022-09-25T10:33:39.815Z,52.00
2022-09-25T10:36:09.601Z,48.50
2022-09-25T10:38:43.354Z,52.75
2022-09-25T10:41:14.567Z,51.50
2022-09-25T10:44:09.934Z,52.75
2022-09-25T10:46:57.313Z,51.50
2022-09-25T10:50:05.939Z,52.00
2022-09-25T10:52:52.449Z,53.50
2022-09-25T10:55:30.050Z,49.25
2022-09-25T10:58:15.371Z,51.75
2022-09-25T11:00:57.171Z,51.75
2022-09-25T11:03:35.612Z,51.50
2022-09-25T11:06:10.655Z,52.00
2022-09-25T11:08:42.560Z,47.75
2022-09-25T11:11:13.551Z,53.25
2022-09-25T11:13:55.632Z,54.25
2022-09-25T11:16:43.309Z,50.75
2022-09-25T11:19:18.232Z,51.00
2022-09-25T11:21:51.048Z,49.75
2022-09-25T11:24:41.868Z,51.00
2022-09-25T11:27:11.768Z,48.25
2022-09-25T11:30:00.158Z,48.75
2022-09-25T11:32:35.623Z,50.75
2022-09-25T11:35:21.196Z,50.75
2022-09-25T11:37:58.034Z,48.75
2022-09-25T11:41:00.920Z,50.75
2022-09-25T11:43:40.714Z,53.50
2022-09-25T11:46:28.064Z,49.75
2022-09-25T11:49:09.939Z,48.50
2022-09-25T11:51:58.328Z,48.75
2022-09-25T11:54:51.810Z,49.25
2022-09-25T11:57:45.002Z,52.00
2022-09-25T12:00:15.708Z,50.75
2022-09-25T12:02:45.037Z,51.25
2022-09-25T12:05:25.419Z,49.50
2022-09-25T12:08:06.662Z,50.75
2022-09-25T12:10:44.049Z,50.00
2022-09-25T12:13:23.158Z,51.50
2022-09-25T12:16:00.010Z,50.00
2022-09-25T12:18:35.287Z,52.25
2022-09-25T12:21:37.229Z,48.50
2022-09-25T12:24:16.509Z,51.00
2022-09-25T12:26:48.670Z,47.00
2022-09-25T12:29:30.323Z,49.75
2022-09-25T12:32:00.174Z,50.25
2022-09-25T12:34:36.112Z,51.50
2022-09-25T12:37:27.296Z,51.50
2022-09-25T12:40:05.134Z,49.75
2022-09-25T12:42:58.301Z,50.00
2022-09-25T12:45:33.599Z,49.75
2022-09-25T12:48:09.503Z,49.75
2022-09-25T12:50:47.630Z,50.25
2022-09-25T12:53:35.743Z,47.00
2022-09-25T12:56:34.998Z,50.00
2022-09-25T12:59:24.393Z,48.50
2022-09-25T13:02:01.224Z,48.75
2022-09-25T13:04:37.477Z,46.50
2022-09-25T13:07:21.620Z,47.75
2022-09-25T13:09:51.977Z,46.50
2022-09-25T13:12:40.888Z,48.50
2022-09-25T13:15:23.016Z,49.75
2022-09-25T13:17:53.444Z,48.00
2022-09-25T13:20:32.674Z,47.50
2022-09-25T13:23:06.090Z,46.75
2022-09-25T13:26:04.930Z,46.00
2022-09-25T13:28:43.358Z,49.00
2022-09-25T13:31:14.574Z,44.25
2022-09-25T13:33:52.223Z,45.00
2022-09-25T13:36:25.913Z,45.00
2022-09-25T13:39:19.232Z,45.00
2022-09-25T13:42:00.361Z,44.00
2022-09-25T13:44:45.246Z,43.75
2022-09-25T13:47:27.320Z,42.75
2022-09-25T13:50:06.896Z,43.50
2022-09-25T13:52:43.214Z,43.75
2022-09-25T13:55:21.574Z,43.00
2022-09-25T13:58:00.786Z,42.75
2022-09-25T14:00:55.012Z,43.00
2022-09-25T14:03:34.878Z,42.00
2022-09-25T14:06:06.687Z,44.25
2022-09-25T14:08:37.376Z,42.75
2022-09-25T14:11:10.268Z,40.75
2022-09-25T14:13:45.069Z,41.25
2022-09-25T14:16:24.616Z,42.50
2022-09-25T14:18:55.504Z,39.25
2022-09-25T14:21:27.857Z,41.50
2022-09-25T14:23:59.713Z,43.00
2022-09-25T14:26:30.375Z,42.75
2022-09-25T14:29:03.353Z,40.00
2022-09-25T14:31:33.499Z,39.25
2022-09-25T14:34:21.691Z,43.50
2022-09-25T14:37:09.663Z,38.50
2022-09-25T14:39:42.565Z,41.00
2022-09-25T14:42:28.445Z,40.00
2022-09-25T14:45:01.741Z,40.00
2022-09-25T14:47:45.975Z,41.00
2022-09-25T14:50:29.422Z,42.25
2022-09-25T14:53:05.287Z,40.75
2022-09-25T14:55:38.022Z,39.25
2022-09-25T14:58:14.979Z,39.50
2022-09-25T15:00:50.877Z,40.25
2022-09-25T15:03:23.220Z,38.50
2022-09-25T15:05:53.621Z,42.00
2022-09-25T15:08:42.632Z,39.25
2022-09-25T15:11:14.492Z,40.50
2022-09-25T15:13:45.298Z,37.50
2022-09-25T15:16:47.036Z,38.75
2022-09-25T15:19:21.798Z,40.00
2022-09-25T15:21:55.472Z,38.50
2022-09-25T15:24:29.032Z,38.50
2022-09-25T15:27:08.924Z,38.50
2022-09-25T15:29:39.572Z,39.25
2022-09-25T15:32:18.240Z,39.75
2022-09-25T15:34:48.373Z,39.50
2022-09-25T15:37:18.513Z,38.00
2022-09-25T15:39:48.140Z,39.25
2022-09-25T15:42:18.147Z,38.75
2022-09-25T15:44:48.198Z,37.75
2022-09-25T15:47:38.381Z,37.75
2022-09-25T15:50:15.594Z,38.00
2022-09-25T15:52:51.693Z,39.50
2022-09-25T15:55:22.668Z,39.00
2022-09-25T15:57:54.410Z,37.75
2022-09-25T16:00:45.965Z,41.75
2022-09-25T16:03:36.643Z,35.25
2022-09-25T16:06:07.574Z,42.50
2022-09-25T16:08:38.384Z,35.25
2022-09-25T16:11:18.105Z,40.00
2022-09-25T16:13:53.170Z,39.00
2022-09-25T16:16:23.732Z,39.75
2022-09-25T16:18:55.627Z,38.25
2022-09-25T16:21:28.652Z,40.00
2022-09-25T16:24:08.698Z,37.00
2022-09-25T16:26:40.635Z,38.50
2022-09-25T16:29:19.520Z,41.50
2022-09-25T16:31:49.327Z,36.00
2022-09-25T16:34:20.621Z,38.50
2022-09-25T16:36:52.800Z,39.75
2022-09-25T16:39:29.071Z,39.50
2022-09-25T16:42:00.726Z,38.00
2022-09-25T16:44:33.341Z,38.75
2022-09-25T16:47:23.208Z,41.50
2022-09-25T16:49:52.850Z,39.25
2022-09-25T16:52:23.634Z,38.50
2022-09-25T16:54:54.792Z,39.00
2022-09-25T16:57:26.430Z,39.75
2022-09-25T16:59:56.128Z,37.50
2022-09-25T17:02:39.324Z,37.50
2022-09-25T17:05:10.730Z,37.00
2022-09-25T17:07:40.849Z,38.50
2022-09-25T17:10:13.698Z,38.00
2022-09-25T17:12:47.678Z,38.75
2022-09-25T17:15:24.567Z,40.25
2022-09-25T17:17:56.522Z,38.75
2022-09-25T17:20:28.249Z,42.00
2022-09-25T17:22:58.716Z,39.00
2022-09-25T17:25:28.025Z,40.00
2022-09-25T17:27:58.474Z,41.00
2022-09-25T17:30:29.538Z,37.00
2022-09-25T17:32:59.285Z,38.50
2022-09-25T17:35:34.717Z,40.00
2022-09-25T17:38:04.314Z,38.50
2022-09-25T17:40:34.546Z,38.00
2022-09-25T17:43:04.006Z,37.25
2022-09-25T17:45:39.243Z,40.75
2022-09-25T17:48:08.637Z,37.75
2022-09-25T17:50:38.046Z,38.25
2022-09-25T17:53:16.693Z,39.00
2022-09-25T17:55:51.205Z,38.00
2022-09-25T17:58:23.478Z,37.50
2022-09-25T18:00:53.838Z,39.75
2022-09-25T18:03:23.871Z,38.75
2022-09-25T18:05:54.163Z,37.50
2022-09-25T18:08:24.203Z,38.00
2022-09-25T18:10:54.905Z,39.75
2022-09-25T18:13:24.432Z,38.25
2022-09-25T18:15:59.180Z,39.25
2022-09-25T18:18:50.873Z,38.00
2022-09-25T18:21:41.292Z,39.25
2022-09-25T18:24:10.776Z,38.75
2022-09-25T18:26:40.449Z,38.50
2022-09-25T18:29:09.881Z,38.50
2022-09-25T18:31:39.434Z,38.50
2022-09-25T18:34:08.957Z,39.75
2022-09-25T18:36:38.280Z,42.00
2022-09-25T18:39:08.151Z,39.50
2022-09-25T18:41:40.887Z,38.75
2022-09-25T18:44:10.430Z,39.00
2022-09-25T18:46:39.845Z,40.75
2022-09-25T18:49:09.878Z,42.00
2022-09-25T18:51:39.435Z,40.00
2022-09-25T18:54:10.222Z,40.50
2022-09-25T18:56:39.538Z,40.25
2022-09-25T18:59:08.962Z,42.25
2022-09-25T19:01:39.138Z,39.00
2022-09-25T19:04:09.270Z,40.00
2022-09-25T19:06:38.732Z,41.50
2022-09-25T19:09:10.376Z,40.00
2022-09-25T19:11:43.393Z,38.25
2022-09-25T19:14:16.159Z,40.50
2022-09-25T19:16:45.558Z,40.25
2022-09-25T19:19:15.214Z,41.25
2022-09-25T19:21:46.069Z,41.75
2022-09-25T19:24:15.626Z,43.00
2022-09-25T19:26:45.611Z,39.00
2022-09-25T19:29:15.027Z,40.25
2022-09-25T19:31:44.729Z,40.75
2022-09-25T19:34:14.413Z,41.00
2022-09-25T19:36:43.934Z,43.00
2022-09-25T19:39:13.522Z,43.50
2022-09-25T19:41:44.849Z,41.00
2022-09-25T19:44:16.248Z,42.50
2022-09-25T19:46:46.851Z,42.50
2022-09-25T19:49:17.534Z,41.00
2022-09-25T19:51:46.936Z,43.00
2022-09-25T19:54:16.705Z,40.25
2022-09-25T19:56:48.393Z,41.00
2022-09-25T19:59:19.489Z,40.25
2022-09-25T20:01:49.035Z,43.25
2022-09-25T20:04:19.201Z,43.75
2022-09-25T20:06:49.928Z,42.75
2022-09-25T20:09:19.453Z,44.25
2022-09-25T20:11:48.911Z,42.25
2022-09-25T20:14:18.240Z,40.50
2022-09-25T20:16:48.334Z,42.00
2022-09-25T20:19:20.509Z,40.75
2022-09-25T20:21:51.353Z,42.75
2022-09-25T20:24:25.006Z,42.00
2022-09-25T20:26:54.654Z,42.00
2022-09-25T20:29:24.293Z,42.75
2022-09-25T20:31:53.540Z,42.00
2022-09-25T20:34:23.180Z,43.00
2022-09-25T20:36:52.461Z,42.50
2022-09-25T20:39:23.397Z,42.25
2022-09-25T20:41:53.059Z,40.75
2022-09-25T20:44:22.611Z,41.75
2022-09-25T20:46:52.013Z,41.00
2022-09-25T20:49:21.466Z,42.25
2022-09-25T20:51:50.955Z,42.50
2022-09-25T20:54:20.389Z,41.00
2022-09-25T20:56:49.856Z,41.50
2022-09-25T20:59:19.354Z,42.25
2022-09-25T21:01:49.074Z,42.75
2022-09-25T21:04:19.389Z,42.00
2022-09-25T21:06:48.692Z,42.00
2022-09-25T21:09:27.922Z,43.75
2022-09-25T21:11:57.907Z,42.25
2022-09-25T21:14:29.203Z,43.00
2022-09-25T21:16:59.564Z,43.75
2022-09-25T21:19:29.592Z,44.25
2022-09-25T21:21:59.058Z,41.50
2022-09-25T21:24:28.399Z,42.50
2022-09-25T21:26:57.846Z,43.25
2022-09-25T21:29:27.232Z,42.50
2022-09-25T21:31:57.143Z,40.50
2022-09-25T21:34:27.720Z,41.50
2022-09-25T21:36:56.941Z,43.50
2022-09-25T21:39:26.405Z,44.25
2022-09-25T21:41:55.723Z,42.00
2022-09-25T21:44:26.235Z,42.75
2022-09-25T21:46:55.742Z,42.50
2022-09-25T21:49:25.066Z,60.50
2022-09-25T21:51:54.601Z,61.50
2022-09-25T21:54:24.022Z,64.50
2022-09-25T21:56:53.420Z,55.50
2022-09-25T21:59:22.950Z,60.25
2022-09-25T22:01:52.559Z,65.00
2022-09-25T22:04:22.151Z,62.00
2022-09-25T22:06:51.435Z,59.75
2022-09-25T22:09:25.417Z,66.25
2022-09-25T22:11:54.867Z,64.50
2022-09-25T22:14:24.148Z,63.00
2022-09-25T22:16:54.256Z,65.00
2022-09-25T22:19:31.064Z,68.67
2022-09-25T22:22:01.311Z,69.67
2022-09-25T22:24:30.738Z,66.50
2022-09-25T22:27:00.138Z,68.67
2022-09-25T22:29:29.589Z,66.33
2022-09-25T22:31:59.056Z,70.67
2022-09-25T22:34:29.336Z,72.33
2022-09-25T22:37:02.018Z,66.33
2022-09-25T22:39:31.508Z,70.00
2022-09-25T22:42:01.069Z,61.75
2022-09-25T22:44:30.734Z,62.75
2022-09-25T22:47:03.740Z,66.75
2022-09-25T22:49:36.429Z,65.00
2022-09-25T22:52:06.639Z,65.50
2022-09-25T22:54:35.983Z,62.25
2022-09-25T22:57:05.640Z,59.50
2022-09-25T22:59:35.138Z,57.75
2022-09-25T23:02:04.502Z,57.50
2022-09-25T23:04:33.880Z,57.50
2022-09-25T23:07:03.220Z,59.25
2022-09-25T23:09:35.253Z,58.75
2022-09-25T23:12:05.025Z,54.25
2022-09-25T23:14:34.616Z,59.50
2022-09-25T23:17:04.565Z,62.25
2022-09-25T23:19:34.263Z,57.50
2022-09-25T23:22:03.639Z,58.00
2022-09-25T23:24:32.902Z,61.75
2022-09-25T23:27:02.348Z,63.50
2022-09-25T23:29:34.975Z,69.00
2022-09-25T23:32:06.103Z,68.33
2022-09-25T23:34:35.638Z,60.00
2022-09-25T23:37:05.115Z,68.00
2022-09-25T23:39:34.585Z,63.00
2022-09-25T23:42:04.069Z,66.75
2022-09-25T23:44:33.361Z,65.00
2022-09-25T23:47:04.338Z,69.00
2022-09-25T23:49:33.842Z,67.33
2022-09-25T23:52:03.362Z,71.00
2022-09-25T23:54:33.081Z,69.33
2022-09-25T23:57:02.454Z,67.00
2022-09-25T23:59:31.772Z,65.33
